Arlington, Kansas
Current Conditions -  °F | °C
As of 2:52 PM on Saturday 22 Nov 2014 (Local Time) from KHUT Reporting Station
Haze Haze  
Wind Chill: 56°   Ceiling: 500
Heat Index: 56°   Visibility: 4mi
Dew Point: 54°   Wind: 14mph
Humidity: 93%   Direction: 190°S
Pressure: 29.73"   Gusts: NA
Location:  37.9°N, 98.18°W
Report Text: KHUT 222052Z 19012KT 4SM BR OVC005 13/12 A2973 RMK AO2 SLP063 T01330122 56036
Loading
Personal Weather Stations






























Interactive Weather Map New forecast layout! Learn more

10-Day Weather Forecast

Advertisements
Track Severe Weather on mobile